sensor_id;sensor_type;location;lat;lon;timestamp;P1;durP1;ratioP1;P2;durP2;ratioP2
16775;SDS011;8505;49.456;8.164;2024-01-11T00:00:40;18.85;;;6.40;;
16775;SDS011;8505;49.456;8.164;2024-01-11T00:03:08;13.85;;;4.60;;
16775;SDS011;8505;49.456;8.164;2024-01-11T00:05:36;20.13;;;7.20;;
16775;SDS011;8505;49.456;8.164;2024-01-11T00:08:06;14.90;;;6.80;;
16775;SDS011;8505;49.456;8.164;2024-01-11T00:10:34;12.88;;;5.43;;
16775;SDS011;8505;49.456;8.164;2024-01-11T00:13:02;18.70;;;7.60;;
16775;SDS011;8505;49.456;8.164;2024-01-11T00:15:30;21.05;;;7.07;;
16775;SDS011;8505;49.456;8.164;2024-01-11T00:17:58;19.73;;;6.03;;
16775;SDS011;8505;49.456;8.164;2024-01-11T00:20:26;16.85;;;6.72;;
16775;SDS011;8505;49.456;8.164;2024-01-11T00:22:54;20.08;;;6.28;;
16775;SDS011;8505;49.456;8.164;2024-01-11T00:25:23;13.23;;;5.65;;
16775;SDS011;8505;49.456;8.164;2024-01-11T00:27:51;17.23;;;6.22;;
16775;SDS011;8505;49.456;8.164;2024-01-11T00:30:18;15.30;;;6.13;;
16775;SDS011;8505;49.456;8.164;2024-01-11T00:32:45;19.35;;;7.10;;
16775;SDS011;8505;49.456;8.164;2024-01-11T00:35:13;27.42;;;8.82;;
16775;SDS011;8505;49.456;8.164;2024-01-11T00:37:41;23.20;;;9.97;;
16775;SDS011;8505;49.456;8.164;2024-01-11T00:40:09;6.15;;;3.38;;
16775;SDS011;8505;49.456;8.164;2024-01-11T00:42:38;17.95;;;6.93;;
16775;SDS011;8505;49.456;8.164;2024-01-11T00:45:06;19.00;;;7.38;;
16775;SDS011;8505;49.456;8.164;2024-01-11T00:47:34;15.98;;;5.40;;
16775;SDS011;8505;49.456;8.164;2024-01-11T00:50:02;12.98;;;5.68;;
16775;SDS011;8505;49.456;8.164;2024-01-11T00:52:30;17.02;;;6.05;;
16775;SDS011;8505;49.456;8.164;2024-01-11T00:54:58;10.93;;;4.30;;
16775;SDS011;8505;49.456;8.164;2024-01-11T00:57:26;9.10;;;5.32;;
16775;SDS011;8505;49.456;8.164;2024-01-11T00:59:55;18.63;;;6.97;;
16775;SDS011;8505;49.456;8.164;2024-01-11T01:02:22;10.77;;;4.97;;
16775;SDS011;8505;49.456;8.164;2024-01-11T01:04:50;11.60;;;5.15;;
16775;SDS011;8505;49.456;8.164;2024-01-11T01:07:18;6.18;;;3.58;;
16775;SDS011;8505;49.456;8.164;2024-01-11T01:09:45;4.57;;;1.60;;
16775;SDS011;8505;49.456;8.164;2024-01-11T01:12:13;11.00;;;4.10;;
16775;SDS011;8505;49.456;8.164;2024-01-11T01:14:40;17.73;;;7.53;;
16775;SDS011;8505;49.456;8.164;2024-01-11T01:17:09;21.63;;;5.93;;
16775;SDS011;8505;49.456;8.164;2024-01-11T01:19:42;11.30;;;3.80;;
16775;SDS011;8505;49.456;8.164;2024-01-11T01:22:09;18.85;;;6.18;;
16775;SDS011;8505;49.456;8.164;2024-01-11T01:24:37;17.20;;;5.07;;
16775;SDS011;8505;49.456;8.164;2024-01-11T01:27:05;14.88;;;6.60;;
16775;SDS011;8505;49.456;8.164;2024-01-11T01:29:32;16.45;;;5.57;;
16775;SDS011;8505;49.456;8.164;2024-01-11T01:32:00;12.50;;;5.60;;
16775;SDS011;8505;49.456;8.164;2024-01-11T01:34:29;5.40;;;3.40;;
16775;SDS011;8505;49.456;8.164;2024-01-11T01:36:57;16.00;;;5.32;;
16775;SDS011;8505;49.456;8.164;2024-01-11T01:39:25;18.95;;;7.60;;
16775;SDS011;8505;49.456;8.164;2024-01-11T01:41:52;11.93;;;4.68;;
16775;SDS011;8505;49.456;8.164;2024-01-11T01:44:20;3.30;;;2.40;;
16775;SDS011;8505;49.456;8.164;2024-01-11T01:46:48;8.77;;;4.18;;
16775;SDS011;8505;49.456;8.164;2024-01-11T01:49:16;18.90;;;6.15;;
16775;SDS011;8505;49.456;8.164;2024-01-11T01:51:50;3.92;;;1.38;;
16775;SDS011;8505;49.456;8.164;2024-01-11T01:54:19;14.90;;;5.40;;
16775;SDS011;8505;49.456;8.164;2024-01-11T01:56:49;9.98;;;3.53;;
16775;SDS011;8505;49.456;8.164;2024-01-11T01:59:17;1.13;;;0.15;;
16775;SDS011;8505;49.456;8.164;2024-01-11T02:01:47;1.02;;;0.65;;
16775;SDS011;8505;49.456;8.164;2024-01-11T02:04:15;6.75;;;2.90;;
16775;SDS011;8505;49.456;8.164;2024-01-11T02:06:43;2.33;;;0.98;;
16775;SDS011;8505;49.456;8.164;2024-01-11T02:09:15;3.75;;;1.88;;
16775;SDS011;8505;49.456;8.164;2024-01-11T02:11:44;19.77;;;6.97;;
16775;SDS011;8505;49.456;8.164;2024-01-11T02:14:12;10.68;;;5.05;;
16775;SDS011;8505;49.456;8.164;2024-01-11T02:16:40;9.43;;;3.42;;
16775;SDS011;8505;49.456;8.164;2024-01-11T02:19:08;9.10;;;3.83;;
16775;SDS011;8505;49.456;8.164;2024-01-11T02:21:40;3.65;;;3.00;;
16775;SDS011;8505;49.456;8.164;2024-01-11T02:24:10;5.33;;;2.43;;
16775;SDS011;8505;49.456;8.164;2024-01-11T02:26:44;13.32;;;5.35;;
16775;SDS011;8505;49.456;8.164;2024-01-11T02:29:25;7.00;;;2.92;;
16775;SDS011;8505;49.456;8.164;2024-01-11T02:31:53;0.85;;;0.43;;
16775;SDS011;8505;49.456;8.164;2024-01-11T02:34:22;1.50;;;1.35;;
16775;SDS011;8505;49.456;8.164;2024-01-11T02:36:50;9.68;;;3.63;;
16775;SDS011;8505;49.456;8.164;2024-01-11T02:39:19;14.05;;;5.90;;
16775;SDS011;8505;49.456;8.164;2024-01-11T02:41:49;12.43;;;4.68;;
16775;SDS011;8505;49.456;8.164;2024-01-11T02:44:18;10.95;;;4.75;;
16775;SDS011;8505;49.456;8.164;2024-01-11T02:46:46;14.93;;;6.97;;
16775;SDS011;8505;49.456;8.164;2024-01-11T02:49:14;4.50;;;1.55;;
16775;SDS011;8505;49.456;8.164;2024-01-11T02:51:42;10.75;;;4.03;;
16775;SDS011;8505;49.456;8.164;2024-01-11T02:54:10;8.38;;;3.78;;
16775;SDS011;8505;49.456;8.164;2024-01-11T02:56:38;17.73;;;6.35;;
16775;SDS011;8505;49.456;8.164;2024-01-11T02:59:06;0.60;;;0.60;;
16775;SDS011;8505;49.456;8.164;2024-01-11T03:01:34;10.35;;;4.53;;
16775;SDS011;8505;49.456;8.164;2024-01-11T03:04:02;13.43;;;5.30;;
16775;SDS011;8505;49.456;8.164;2024-01-11T03:06:30;10.15;;;3.17;;
16775;SDS011;8505;49.456;8.164;2024-01-11T03:08:58;3.35;;;1.50;;
16775;SDS011;8505;49.456;8.164;2024-01-11T03:11:26;6.07;;;3.25;;
16775;SDS011;8505;49.456;8.164;2024-01-11T03:13:55;16.88;;;5.53;;
16775;SDS011;8505;49.456;8.164;2024-01-11T03:16:22;8.48;;;2.95;;
16775;SDS011;8505;49.456;8.164;2024-01-11T03:18:50;5.68;;;2.38;;
16775;SDS011;8505;49.456;8.164;2024-01-11T03:21:18;1.75;;;1.15;;
16775;SDS011;8505;49.456;8.164;2024-01-11T03:23:46;15.65;;;6.10;;
16775;SDS011;8505;49.456;8.164;2024-01-11T03:26:14;9.20;;;2.60;;
16775;SDS011;8505;49.456;8.164;2024-01-11T03:28:43;16.83;;;5.55;;
16775;SDS011;8505;49.456;8.164;2024-01-11T03:31:12;13.15;;;5.65;;
16775;SDS011;8505;49.456;8.164;2024-01-11T03:33:40;16.90;;;6.72;;
16775;SDS011;8505;49.456;8.164;2024-01-11T03:36:08;19.33;;;5.90;;
16775;SDS011;8505;49.456;8.164;2024-01-11T03:38:37;8.27;;;4.53;;
16775;SDS011;8505;49.456;8.164;2024-01-11T03:41:07;17.52;;;4.28;;
16775;SDS011;8505;49.456;8.164;2024-01-11T03:43:36;9.02;;;4.57;;
16775;SDS011;8505;49.456;8.164;2024-01-11T03:46:04;7.45;;;2.90;;
16775;SDS011;8505;49.456;8.164;2024-01-11T03:48:33;3.38;;;1.70;;
16775;SDS011;8505;49.456;8.164;2024-01-11T03:51:02;14.38;;;4.60;;
16775;SDS011;8505;49.456;8.164;2024-01-11T03:53:30;9.65;;;3.85;;
16775;SDS011;8505;49.456;8.164;2024-01-11T03:56:02;1.73;;;1.65;;
16775;SDS011;8505;49.456;8.164;2024-01-11T03:58:30;7.97;;;3.90;;
16775;SDS011;8505;49.456;8.164;2024-01-11T04:00:59;9.15;;;2.80;;
16775;SDS011;8505;49.456;8.164;2024-01-11T04:03:27;13.32;;;4.95;;
16775;SDS011;8505;49.456;8.164;2024-01-11T04:05:56;10.43;;;4.88;;
16775;SDS011;8505;49.456;8.164;2024-01-11T04:08:24;15.77;;;6.10;;
16775;SDS011;8505;49.456;8.164;2024-01-11T04:10:52;6.75;;;2.85;;
16775;SDS011;8505;49.456;8.164;2024-01-11T04:13:20;11.63;;;4.20;;
16775;SDS011;8505;49.456;8.164;2024-01-11T04:15:50;13.60;;;6.47;;
16775;SDS011;8505;49.456;8.164;2024-01-11T04:18:18;17.40;;;5.82;;
16775;SDS011;8505;49.456;8.164;2024-01-11T04:20:46;20.23;;;7.37;;
16775;SDS011;8505;49.456;8.164;2024-01-11T04:23:15;13.73;;;5.07;;
16775;SDS011;8505;49.456;8.164;2024-01-11T04:25:43;2.08;;;1.60;;
16775;SDS011;8505;49.456;8.164;2024-01-11T04:28:11;1.58;;;0.85;;
16775;SDS011;8505;49.456;8.164;2024-01-11T04:30:39;10.90;;;4.40;;
16775;SDS011;8505;49.456;8.164;2024-01-11T04:33:07;14.40;;;4.93;;
16775;SDS011;8505;49.456;8.164;2024-01-11T04:35:35;16.27;;;5.07;;
16775;SDS011;8505;49.456;8.164;2024-01-11T04:38:03;21.10;;;7.68;;
16775;SDS011;8505;49.456;8.164;2024-01-11T04:40:32;19.37;;;6.70;;
16775;SDS011;8505;49.456;8.164;2024-01-11T04:43:00;10.07;;;4.28;;
16775;SDS011;8505;49.456;8.164;2024-01-11T04:45:28;10.85;;;4.03;;
16775;SDS011;8505;49.456;8.164;2024-01-11T04:47:55;17.88;;;6.82;;
16775;SDS011;8505;49.456;8.164;2024-01-11T04:50:23;19.05;;;8.00;;
16775;SDS011;8505;49.456;8.164;2024-01-11T04:52:51;15.07;;;4.32;;
16775;SDS011;8505;49.456;8.164;2024-01-11T04:55:18;16.00;;;5.97;;
16775;SDS011;8505;49.456;8.164;2024-01-11T04:57:48;20.38;;;7.68;;
16775;SDS011;8505;49.456;8.164;2024-01-11T05:00:18;24.38;;;8.32;;
16775;SDS011;8505;49.456;8.164;2024-01-11T05:02:46;14.15;;;5.90;;
16775;SDS011;8505;49.456;8.164;2024-01-11T05:05:14;20.25;;;6.50;;
16775;SDS011;8505;49.456;8.164;2024-01-11T05:07:42;25.85;;;6.95;;
16775;SDS011;8505;49.456;8.164;2024-01-11T05:10:10;23.83;;;8.30;;
16775;SDS011;8505;49.456;8.164;2024-01-11T05:12:37;30.92;;;12.32;;
16775;SDS011;8505;49.456;8.164;2024-01-11T05:15:07;24.48;;;6.10;;
16775;SDS011;8505;49.456;8.164;2024-01-11T05:17:35;31.10;;;8.63;;
16775;SDS011;8505;49.456;8.164;2024-01-11T05:20:03;27.67;;;9.93;;
16775;SDS011;8505;49.456;8.164;2024-01-11T05:22:32;18.40;;;6.95;;
16775;SDS011;8505;49.456;8.164;2024-01-11T05:24:59;20.20;;;7.25;;
16775;SDS011;8505;49.456;8.164;2024-01-11T05:27:27;16.23;;;6.22;;
16775;SDS011;8505;49.456;8.164;2024-01-11T05:29:55;18.83;;;7.18;;
16775;SDS011;8505;49.456;8.164;2024-01-11T05:32:24;17.75;;;5.72;;
16775;SDS011;8505;49.456;8.164;2024-01-11T05:34:51;14.30;;;4.78;;
16775;SDS011;8505;49.456;8.164;2024-01-11T05:37:19;14.68;;;5.28;;
16775;SDS011;8505;49.456;8.164;2024-01-11T05:39:48;27.37;;;6.37;;
16775;SDS011;8505;49.456;8.164;2024-01-11T05:42:15;10.27;;;3.97;;
16775;SDS011;8505;49.456;8.164;2024-01-11T05:44:43;1.10;;;0.60;;
16775;SDS011;8505;49.456;8.164;2024-01-11T05:47:11;12.27;;;5.20;;
16775;SDS011;8505;49.456;8.164;2024-01-11T05:49:41;9.48;;;3.25;;
16775;SDS011;8505;49.456;8.164;2024-01-11T05:52:10;3.03;;;2.13;;
16775;SDS011;8505;49.456;8.164;2024-01-11T05:54:38;10.27;;;4.72;;
16775;SDS011;8505;49.456;8.164;2024-01-11T05:57:05;10.93;;;2.70;;
16775;SDS011;8505;49.456;8.164;2024-01-11T05:59:33;6.65;;;2.28;;
16775;SDS011;8505;49.456;8.164;2024-01-11T06:02:01;11.00;;;4.27;;
16775;SDS011;8505;49.456;8.164;2024-01-11T06:04:29;10.67;;;3.00;;
16775;SDS011;8505;49.456;8.164;2024-01-11T06:07:00;19.33;;;7.88;;
16775;SDS011;8505;49.456;8.164;2024-01-11T06:09:28;8.45;;;3.38;;
16775;SDS011;8505;49.456;8.164;2024-01-11T06:11:56;5.57;;;2.97;;
16775;SDS011;8505;49.456;8.164;2024-01-11T06:14:23;7.32;;;3.15;;
16775;SDS011;8505;49.456;8.164;2024-01-11T06:16:52;17.92;;;7.47;;
16775;SDS011;8505;49.456;8.164;2024-01-11T06:19:19;1.70;;;0.90;;
16775;SDS011;8505;49.456;8.164;2024-01-11T06:21:47;6.05;;;2.67;;
16775;SDS011;8505;49.456;8.164;2024-01-11T06:24:16;10.88;;;4.07;;
16775;SDS011;8505;49.456;8.164;2024-01-11T06:26:44;7.47;;;3.83;;
16775;SDS011;8505;49.456;8.164;2024-01-11T06:29:12;21.67;;;8.25;;
16775;SDS011;8505;49.456;8.164;2024-01-11T06:31:40;19.98;;;4.85;;
16775;SDS011;8505;49.456;8.164;2024-01-11T06:34:07;11.55;;;5.45;;
16775;SDS011;8505;49.456;8.164;2024-01-11T06:36:35;16.33;;;6.50;;
16775;SDS011;8505;49.456;8.164;2024-01-11T06:39:03;16.15;;;5.95;;
16775;SDS011;8505;49.456;8.164;2024-01-11T06:41:32;25.92;;;10.45;;
16775;SDS011;8505;49.456;8.164;2024-01-11T06:44:00;16.70;;;4.23;;
16775;SDS011;8505;49.456;8.164;2024-01-11T06:46:28;0.40;;;0.40;;
16775;SDS011;8505;49.456;8.164;2024-01-11T06:48:56;2.50;;;1.65;;
16775;SDS011;8505;49.456;8.164;2024-01-11T06:51:24;6.47;;;3.38;;
16775;SDS011;8505;49.456;8.164;2024-01-11T06:53:52;13.38;;;5.80;;
16775;SDS011;8505;49.456;8.164;2024-01-11T06:56:19;14.25;;;5.82;;
16775;SDS011;8505;49.456;8.164;2024-01-11T06:58:49;3.37;;;2.43;;
16775;SDS011;8505;49.456;8.164;2024-01-11T07:01:17;6.93;;;3.38;;
16775;SDS011;8505;49.456;8.164;2024-01-11T07:03:45;6.28;;;3.60;;
16775;SDS011;8505;49.456;8.164;2024-01-11T07:06:12;19.35;;;5.43;;
16775;SDS011;8505;49.456;8.164;2024-01-11T07:08:41;2.45;;;1.25;;
16775;SDS011;8505;49.456;8.164;2024-01-11T07:11:08;26.58;;;10.02;;
16775;SDS011;8505;49.456;8.164;2024-01-11T07:13:37;19.45;;;5.60;;
16775;SDS011;8505;49.456;8.164;2024-01-11T07:16:06;6.03;;;3.38;;
16775;SDS011;8505;49.456;8.164;2024-01-11T07:18:34;15.60;;;6.50;;
16775;SDS011;8505;49.456;8.164;2024-01-11T07:21:02;1.10;;;0.30;;
16775;SDS011;8505;49.456;8.164;2024-01-11T07:23:30;10.88;;;4.00;;
16775;SDS011;8505;49.456;8.164;2024-01-11T07:25:58;12.70;;;5.55;;
16775;SDS011;8505;49.456;8.164;2024-01-11T07:28:25;1.05;;;1.00;;
16775;SDS011;8505;49.456;8.164;2024-01-11T07:30:53;10.90;;;4.50;;
16775;SDS011;8505;49.456;8.164;2024-01-11T07:33:22;4.38;;;2.53;;
16775;SDS011;8505;49.456;8.164;2024-01-11T07:35:50;1.52;;;1.13;;
16775;SDS011;8505;49.456;8.164;2024-01-11T07:38:18;2.60;;;1.30;;
16775;SDS011;8505;49.456;8.164;2024-01-11T07:40:46;1.75;;;1.52;;
16775;SDS011;8505;49.456;8.164;2024-01-11T07:43:13;7.85;;;4.05;;
16775;SDS011;8505;49.456;8.164;2024-01-11T07:45:41;0.28;;;0.28;;
16775;SDS011;8505;49.456;8.164;2024-01-11T07:48:09;6.10;;;3.75;;
16775;SDS011;8505;49.456;8.164;2024-01-11T07:50:38;2.38;;;2.25;;
16775;SDS011;8505;49.456;8.164;2024-01-11T07:53:06;3.55;;;3.20;;
16775;SDS011;8505;49.456;8.164;2024-01-11T07:55:34;6.30;;;1.98;;
16775;SDS011;8505;49.456;8.164;2024-01-11T07:58:01;13.32;;;4.15;;
16775;SDS011;8505;49.456;8.164;2024-01-11T08:00:29;14.57;;;5.27;;
16775;SDS011;8505;49.456;8.164;2024-01-11T08:02:57;1.40;;;1.30;;
16775;SDS011;8505;49.456;8.164;2024-01-11T08:05:24;3.17;;;2.28;;
16775;SDS011;8505;49.456;8.164;2024-01-11T08:07:54;14.93;;;5.50;;
16775;SDS011;8505;49.456;8.164;2024-01-11T08:10:21;15.55;;;6.47;;
16775;SDS011;8505;49.456;8.164;2024-01-11T08:12:49;4.70;;;4.40;;
16775;SDS011;8505;49.456;8.164;2024-01-11T08:15:18;15.30;;;4.40;;
16775;SDS011;8505;49.456;8.164;2024-01-11T08:17:46;7.93;;;4.90;;
16775;SDS011;8505;49.456;8.164;2024-01-11T08:20:14;3.60;;;2.70;;
16775;SDS011;8505;49.456;8.164;2024-01-11T08:22:42;4.25;;;2.95;;
16775;SDS011;8505;49.456;8.164;2024-01-11T08:25:14;17.73;;;5.85;;
16775;SDS011;8505;49.456;8.164;2024-01-11T08:27:41;3.92;;;1.83;;
16775;SDS011;8505;49.456;8.164;2024-01-11T08:30:09;7.68;;;3.60;;
16775;SDS011;8505;49.456;8.164;2024-01-11T08:32:39;19.88;;;7.28;;
16775;SDS011;8505;49.456;8.164;2024-01-11T08:35:08;11.35;;;4.30;;
16775;SDS011;8505;49.456;8.164;2024-01-11T08:37:38;18.40;;;6.70;;
16775;SDS011;8505;49.456;8.164;2024-01-11T08:40:06;24.15;;;8.32;;
16775;SDS011;8505;49.456;8.164;2024-01-11T08:42:37;5.20;;;2.05;;
16775;SDS011;8505;49.456;8.164;2024-01-11T08:45:06;12.05;;;3.20;;
16775;SDS011;8505;49.456;8.164;2024-01-11T08:47:34;16.45;;;6.68;;
16775;SDS011;8505;49.456;8.164;2024-01-11T08:50:05;8.13;;;4.33;;
16775;SDS011;8505;49.456;8.164;2024-01-11T08:52:33;12.20;;;4.75;;
16775;SDS011;8505;49.456;8.164;2024-01-11T08:55:01;7.50;;;2.80;;
16775;SDS011;8505;49.456;8.164;2024-01-11T08:57:30;4.38;;;3.35;;
16775;SDS011;8505;49.456;8.164;2024-01-11T08:59:59;21.80;;;8.32;;
16775;SDS011;8505;49.456;8.164;2024-01-11T09:02:27;15.73;;;4.45;;
16775;SDS011;8505;49.456;8.164;2024-01-11T09:04:55;15.52;;;5.30;;
16775;SDS011;8505;49.456;8.164;2024-01-11T09:07:22;6.07;;;3.43;;
16775;SDS011;8505;49.456;8.164;2024-01-11T09:09:50;16.25;;;6.70;;
16775;SDS011;8505;49.456;8.164;2024-01-11T09:12:23;21.05;;;5.97;;
16775;SDS011;8505;49.456;8.164;2024-01-11T09:14:53;6.50;;;3.20;;
16775;SDS011;8505;49.456;8.164;2024-01-11T09:17:24;11.75;;;4.97;;
16775;SDS011;8505;49.456;8.164;2024-01-11T09:19:51;2.60;;;1.27;;
16775;SDS011;8505;49.456;8.164;2024-01-11T09:22:19;2.92;;;2.33;;
16775;SDS011;8505;49.456;8.164;2024-01-11T09:24:47;3.33;;;2.35;;
16775;SDS011;8505;49.456;8.164;2024-01-11T09:27:14;2.75;;;1.23;;
16775;SDS011;8505;49.456;8.164;2024-01-11T09:29:42;3.30;;;1.92;;
16775;SDS011;8505;49.456;8.164;2024-01-11T09:32:11;0.30;;;0.30;;
16775;SDS011;8505;49.456;8.164;2024-01-11T09:34:41;4.20;;;2.20;;
16775;SDS011;8505;49.456;8.164;2024-01-11T09:37:11;1.98;;;0.65;;
16775;SDS011;8505;49.456;8.164;2024-01-11T09:39:39;4.10;;;2.75;;
16775;SDS011;8505;49.456;8.164;2024-01-11T09:42:08;7.55;;;4.07;;
16775;SDS011;8505;49.456;8.164;2024-01-11T09:44:37;4.37;;;2.50;;
16775;SDS011;8505;49.456;8.164;2024-01-11T09:47:06;6.68;;;0.98;;
16775;SDS011;8505;49.456;8.164;2024-01-11T09:49:43;18.17;;;3.83;;
16775;SDS011;8505;49.456;8.164;2024-01-11T09:52:12;6.65;;;2.63;;
16775;SDS011;8505;49.456;8.164;2024-01-11T09:54:41;6.13;;;2.72;;
16775;SDS011;8505;49.456;8.164;2024-01-11T09:57:09;11.63;;;4.43;;
16775;SDS011;8505;49.456;8.164;2024-01-11T09:59:37;12.88;;;4.32;;
16775;SDS011;8505;49.456;8.164;2024-01-11T10:02:05;8.20;;;4.73;;
16775;SDS011;8505;49.456;8.164;2024-01-11T10:04:37;4.72;;;2.42;;
16775;SDS011;8505;49.456;8.164;2024-01-11T10:07:06;11.75;;;3.85;;
16775;SDS011;8505;49.456;8.164;2024-01-11T10:09:34;26.25;;;6.03;;
16775;SDS011;8505;49.456;8.164;2024-01-11T10:12:03;2.97;;;1.88;;
16775;SDS011;8505;49.456;8.164;2024-01-11T10:14:32;27.92;;;6.85;;
16775;SDS011;8505;49.456;8.164;2024-01-11T10:16:59;18.95;;;7.45;;
16775;SDS011;8505;49.456;8.164;2024-01-11T10:19:27;18.97;;;7.60;;
16775;SDS011;8505;49.456;8.164;2024-01-11T10:21:56;7.05;;;3.80;;
16775;SDS011;8505;49.456;8.164;2024-01-11T10:24:26;14.10;;;4.68;;
16775;SDS011;8505;49.456;8.164;2024-01-11T10:26:55;17.55;;;6.07;;
16775;SDS011;8505;49.456;8.164;2024-01-11T10:29:25;5.57;;;2.65;;
16775;SDS011;8505;49.456;8.164;2024-01-11T10:31:55;6.53;;;2.55;;
16775;SDS011;8505;49.456;8.164;2024-01-11T10:34:23;2.90;;;2.00;;
16775;SDS011;8505;49.456;8.164;2024-01-11T10:36:52;8.00;;;3.50;;
16775;SDS011;8505;49.456;8.164;2024-01-11T10:39:20;2.90;;;1.80;;
16775;SDS011;8505;49.456;8.164;2024-01-11T10:41:56;9.50;;;5.05;;
16775;SDS011;8505;49.456;8.164;2024-01-11T10:44:34;3.00;;;1.10;;
16775;SDS011;8505;49.456;8.164;2024-01-11T10:47:03;2.90;;;0.87;;
16775;SDS011;8505;49.456;8.164;2024-01-11T10:49:33;4.70;;;1.98;;
16775;SDS011;8505;49.456;8.164;2024-01-11T10:52:04;3.65;;;2.33;;
16775;SDS011;8505;49.456;8.164;2024-01-11T10:54:34;7.10;;;3.75;;
16775;SDS011;8505;49.456;8.164;2024-01-11T10:57:05;23.65;;;7.53;;
16775;SDS011;8505;49.456;8.164;2024-01-11T10:59:34;15.25;;;6.75;;
16775;SDS011;8505;49.456;8.164;2024-01-11T11:02:04;11.98;;;3.25;;
16775;SDS011;8505;49.456;8.164;2024-01-11T11:04:34;16.10;;;3.40;;
16775;SDS011;8505;49.456;8.164;2024-01-11T11:07:04;22.52;;;6.55;;
16775;SDS011;8505;49.456;8.164;2024-01-11T11:09:34;7.93;;;4.10;;
16775;SDS011;8505;49.456;8.164;2024-01-11T11:12:02;13.18;;;4.85;;
16775;SDS011;8505;49.456;8.164;2024-01-11T11:14:34;8.27;;;3.43;;
16775;SDS011;8505;49.456;8.164;2024-01-11T11:17:02;7.45;;;2.78;;
16775;SDS011;8505;49.456;8.164;2024-01-11T11:19:31;3.38;;;1.67;;
16775;SDS011;8505;49.456;8.164;2024-01-11T11:21:59;10.50;;;6.13;;
16775;SDS011;8505;49.456;8.164;2024-01-11T11:24:33;12.90;;;4.90;;
16775;SDS011;8505;49.456;8.164;2024-01-11T11:27:01;10.68;;;2.80;;
16775;SDS011;8505;49.456;8.164;2024-01-11T11:29:29;22.03;;;6.40;;
16775;SDS011;8505;49.456;8.164;2024-01-11T11:31:59;5.60;;;1.90;;
16775;SDS011;8505;49.456;8.164;2024-01-11T11:34:42;18.38;;;7.72;;
16775;SDS011;8505;49.456;8.164;2024-01-11T11:37:12;5.50;;;3.25;;
16775;SDS011;8505;49.456;8.164;2024-01-11T11:39:41;14.98;;;5.90;;
16775;SDS011;8505;49.456;8.164;2024-01-11T11:42:09;13.67;;;6.33;;
16775;SDS011;8505;49.456;8.164;2024-01-11T11:44:46;16.77;;;6.40;;
16775;SDS011;8505;49.456;8.164;2024-01-11T11:47:20;7.88;;;3.35;;
16775;SDS011;8505;49.456;8.164;2024-01-11T11:49:56;2.45;;;2.20;;
16775;SDS011;8505;49.456;8.164;2024-01-11T11:52:26;6.72;;;3.20;;
16775;SDS011;8505;49.456;8.164;2024-01-11T11:54:55;10.85;;;5.22;;
16775;SDS011;8505;49.456;8.164;2024-01-11T11:57:24;8.38;;;3.53;;
16775;SDS011;8505;49.456;8.164;2024-01-11T11:59:54;11.25;;;2.53;;
16775;SDS011;8505;49.456;8.164;2024-01-11T12:02:25;9.27;;;3.90;;
16775;SDS011;8505;49.456;8.164;2024-01-11T12:04:54;6.45;;;1.80;;
16775;SDS011;8505;49.456;8.164;2024-01-11T12:07:22;12.40;;;5.70;;
16775;SDS011;8505;49.456;8.164;2024-01-11T12:09:51;6.97;;;3.33;;
16775;SDS011;8505;49.456;8.164;2024-01-11T12:12:18;15.57;;;5.47;;
16775;SDS011;8505;49.456;8.164;2024-01-11T12:14:47;20.20;;;3.30;;
16775;SDS011;8505;49.456;8.164;2024-01-11T12:17:16;6.22;;;3.30;;
16775;SDS011;8505;49.456;8.164;2024-01-11T12:19:45;5.30;;;2.45;;
16775;SDS011;8505;49.456;8.164;2024-01-11T12:22:12;8.80;;;2.50;;
16775;SDS011;8505;49.456;8.164;2024-01-11T12:24:40;11.35;;;4.50;;
16775;SDS011;8505;49.456;8.164;2024-01-11T12:27:08;1.98;;;1.52;;
16775;SDS011;8505;49.456;8.164;2024-01-11T12:29:38;7.55;;;2.50;;
16775;SDS011;8505;49.456;8.164;2024-01-11T12:32:20;3.45;;;1.65;;
16775;SDS011;8505;49.456;8.164;2024-01-11T12:34:50;4.85;;;3.65;;
16775;SDS011;8505;49.456;8.164;2024-01-11T12:37:20;12.02;;;4.35;;
16775;SDS011;8505;49.456;8.164;2024-01-11T12:39:47;3.90;;;2.33;;
16775;SDS011;8505;49.456;8.164;2024-01-11T12:42:15;2.67;;;1.73;;
16775;SDS011;8505;49.456;8.164;2024-01-11T12:44:43;12.20;;;4.53;;
16775;SDS011;8505;49.456;8.164;2024-01-11T12:47:14;7.17;;;3.57;;
16775;SDS011;8505;49.456;8.164;2024-01-11T12:49:43;10.00;;;2.60;;
16775;SDS011;8505;49.456;8.164;2024-01-11T12:52:16;14.48;;;4.05;;
16775;SDS011;8505;49.456;8.164;2024-01-11T12:54:44;9.07;;;4.47;;
16775;SDS011;8505;49.456;8.164;2024-01-11T12:57:12;15.90;;;5.80;;
16775;SDS011;8505;49.456;8.164;2024-01-11T12:59:45;14.77;;;5.55;;
16775;SDS011;8505;49.456;8.164;2024-01-11T13:02:13;10.90;;;4.53;;
16775;SDS011;8505;49.456;8.164;2024-01-11T13:04:44;13.45;;;5.35;;
16775;SDS011;8505;49.456;8.164;2024-01-11T13:07:12;7.10;;;3.95;;
16775;SDS011;8505;49.456;8.164;2024-01-11T13:09:43;0.52;;;0.52;;
16775;SDS011;8505;49.456;8.164;2024-01-11T13:12:11;6.90;;;1.60;;
16775;SDS011;8505;49.456;8.164;2024-01-11T13:14:38;4.63;;;2.30;;
16775;SDS011;8505;49.456;8.164;2024-01-11T13:17:07;16.50;;;6.30;;
16775;SDS011;8505;49.456;8.164;2024-01-11T13:19:34;12.05;;;2.25;;
16775;SDS011;8505;49.456;8.164;2024-01-11T13:22:02;16.53;;;5.40;;
16775;SDS011;8505;49.456;8.164;2024-01-11T13:24:30;1.90;;;0.63;;
16775;SDS011;8505;49.456;8.164;2024-01-11T13:26:59;6.88;;;3.03;;
16775;SDS011;8505;49.456;8.164;2024-01-11T13:29:27;9.60;;;4.13;;
16775;SDS011;8505;49.456;8.164;2024-01-11T13:31:56;35.83;;;15.77;;
16775;SDS011;8505;49.456;8.164;2024-01-11T13:34:25;36.15;;;16.45;;
16775;SDS011;8505;49.456;8.164;2024-01-11T13:36:53;33.73;;;15.50;;
16775;SDS011;8505;49.456;8.164;2024-01-11T13:39:21;4.28;;;2.58;;
16775;SDS011;8505;49.456;8.164;2024-01-11T13:41:50;14.75;;;5.53;;
16775;SDS011;8505;49.456;8.164;2024-01-11T13:44:19;12.95;;;5.40;;
16775;SDS011;8505;49.456;8.164;2024-01-11T13:46:50;4.18;;;2.88;;
16775;SDS011;8505;49.456;8.164;2024-01-11T13:49:18;5.50;;;2.50;;
16775;SDS011;8505;49.456;8.164;2024-01-11T13:51:49;7.43;;;4.63;;
16775;SDS011;8505;49.456;8.164;2024-01-11T13:54:26;11.13;;;4.82;;
16775;SDS011;8505;49.456;8.164;2024-01-11T13:56:54;12.40;;;4.20;;
16775;SDS011;8505;49.456;8.164;2024-01-11T13:59:23;7.90;;;3.15;;
16775;SDS011;8505;49.456;8.164;2024-01-11T14:01:51;5.13;;;2.72;;
16775;SDS011;8505;49.456;8.164;2024-01-11T14:04:19;13.87;;;6.13;;
16775;SDS011;8505;49.456;8.164;2024-01-11T14:06:49;5.95;;;2.30;;
16775;SDS011;8505;49.456;8.164;2024-01-11T14:09:17;4.35;;;2.15;;
16775;SDS011;8505;49.456;8.164;2024-01-11T14:11:45;8.63;;;2.25;;
16775;SDS011;8505;49.456;8.164;2024-01-11T14:14:15;11.48;;;3.67;;
16775;SDS011;8505;49.456;8.164;2024-01-11T14:16:46;1.45;;;1.35;;
16775;SDS011;8505;49.456;8.164;2024-01-11T14:19:14;5.20;;;2.07;;
16775;SDS011;8505;49.456;8.164;2024-01-11T14:21:42;2.40;;;1.10;;
16775;SDS011;8505;49.456;8.164;2024-01-11T14:24:10;37.58;;;14.63;;
16775;SDS011;8505;49.456;8.164;2024-01-11T14:26:39;38.60;;;17.75;;
16775;SDS011;8505;49.456;8.164;2024-01-11T14:29:07;40.85;;;19.10;;
16775;SDS011;8505;49.456;8.164;2024-01-11T14:31:37;37.13;;;17.70;;
16775;SDS011;8505;49.456;8.164;2024-01-11T14:34:07;38.55;;;18.83;;
16775;SDS011;8505;49.456;8.164;2024-01-11T14:36:35;39.90;;;18.60;;
16775;SDS011;8505;49.456;8.164;2024-01-11T14:39:03;42.35;;;19.05;;
16775;SDS011;8505;49.456;8.164;2024-01-11T14:41:31;37.63;;;17.75;;
16775;SDS011;8505;49.456;8.164;2024-01-11T14:44:00;36.45;;;18.08;;
16775;SDS011;8505;49.456;8.164;2024-01-11T14:46:27;38.33;;;18.25;;
16775;SDS011;8505;49.456;8.164;2024-01-11T14:48:55;54.25;;;21.52;;
16775;SDS011;8505;49.456;8.164;2024-01-11T14:51:25;52.78;;;20.63;;
16775;SDS011;8505;49.456;8.164;2024-01-11T14:53:55;42.80;;;18.35;;
16775;SDS011;8505;49.456;8.164;2024-01-11T14:56:23;43.20;;;19.45;;
16775;SDS011;8505;49.456;8.164;2024-01-11T14:58:50;39.33;;;18.40;;
16775;SDS011;8505;49.456;8.164;2024-01-11T15:01:18;38.53;;;16.73;;